sensor_id;sensor_type;location;lat;lon;timestamp;pressure;altitude;pressure_sealevel;temperature;humidity
69784;BME280;57054;51.978;4.498;2023-04-05T00:00:42;102562.28;;;4.81;77.58
69784;BME280;57054;51.978;4.498;2023-04-05T00:03:09;102562.25;;;4.80;77.71
69784;BME280;57054;51.978;4.498;2023-04-05T00:05:35;102570.03;;;4.78;77.77
69784;BME280;57054;51.978;4.498;2023-04-05T00:08:02;102557.88;;;4.76;77.92
69784;BME280;57054;51.978;4.498;2023-04-05T00:10:29;102560.44;;;4.73;78.01
69784;BME280;57054;51.978;4.498;2023-04-05T00:12:55;102552.66;;;4.71;77.94
69784;BME280;57054;51.978;4.498;2023-04-05T00:15:21;102557.81;;;4.70;78.14
69784;BME280;57054;51.978;4.498;2023-04-05T00:17:46;102556.94;;;4.68;78.27
69784;BME280;57054;51.978;4.498;2023-04-05T00:20:12;102554.31;;;4.66;78.31
69784;BME280;57054;51.978;4.498;2023-04-05T00:22:37;102552.56;;;4.64;78.42
69784;BME280;57054;51.978;4.498;2023-04-05T00:25:04;102549.06;;;4.61;78.54
69784;BME280;57054;51.978;4.498;2023-04-05T00:27:29;102544.75;;;4.60;78.45
69784;BME280;57054;51.978;4.498;2023-04-05T00:29:55;102551.66;;;4.58;78.71
69784;BME280;57054;51.978;4.498;2023-04-05T00:32:21;102540.34;;;4.56;78.62
69784;BME280;57054;51.978;4.498;2023-04-05T00:34:46;102549.88;;;4.56;78.68
69784;BME280;57054;51.978;4.498;2023-04-05T00:37:11;102547.22;;;4.53;78.75
69784;BME280;57054;51.978;4.498;2023-04-05T00:39:38;102547.25;;;4.51;78.98
69784;BME280;57054;51.978;4.498;2023-04-05T00:42:04;102543.75;;;4.51;78.82
69784;BME280;57054;51.978;4.498;2023-04-05T00:44:30;102538.56;;;4.48;78.95
69784;BME280;57054;51.978;4.498;2023-04-05T00:47:08;102534.19;;;4.47;79.02
69784;BME280;57054;51.978;4.498;2023-04-05T00:49:34;102533.31;;;4.45;79.09
69784;BME280;57054;51.978;4.498;2023-04-05T00:52:01;102538.47;;;4.43;79.19
69784;BME280;57054;51.978;4.498;2023-04-05T00:54:28;102533.28;;;4.41;79.22
69784;BME280;57054;51.978;4.498;2023-04-05T00:56:57;102541.03;;;4.38;79.29
69784;BME280;57054;51.978;4.498;2023-04-05T00:59:24;102528.91;;;4.37;79.38
69784;BME280;57054;51.978;4.498;2023-04-05T01:01:56;102532.34;;;4.36;79.38
69784;BME280;57054;51.978;4.498;2023-04-05T01:04:25;102532.34;;;4.35;79.50
69784;BME280;57054;51.978;4.498;2023-04-05T01:06:56;102526.25;;;4.33;79.46
69784;BME280;57054;51.978;4.498;2023-04-05T01:09:47;102521.06;;;4.31;79.56
69784;BME280;57054;51.978;4.498;2023-04-05T01:12:18;102519.31;;;4.30;79.54
69784;BME280;57054;51.978;4.498;2023-04-05T01:14:47;102516.66;;;4.27;79.59
69784;BME280;57054;51.978;4.498;2023-04-05T01:17:14;102517.53;;;4.26;79.70
69784;BME280;57054;51.978;4.498;2023-04-05T01:19:41;102523.56;;;4.25;79.61
69784;BME280;57054;51.978;4.498;2023-04-05T01:22:15;102514.91;;;4.23;79.82
69784;BME280;57054;51.978;4.498;2023-04-05T01:25:01;102509.66;;;4.20;79.83
69784;BME280;57054;51.978;4.498;2023-04-05T01:30:38;102506.16;;;4.15;79.95
69784;BME280;57054;51.978;4.498;2023-04-05T01:33:13;102501.78;;;4.12;79.84
69784;BME280;57054;51.978;4.498;2023-04-05T01:38:38;102501.75;;;4.08;80.05
69784;BME280;57054;51.978;4.498;2023-04-05T01:41:04;102496.50;;;4.04;80.10
69784;BME280;57054;51.978;4.498;2023-04-05T01:43:29;102498.22;;;4.02;80.07
69784;BME280;57054;51.978;4.498;2023-04-05T01:45:55;102495.59;;;4.01;80.16
69784;BME280;57054;51.978;4.498;2023-04-05T01:48:20;102493.81;;;3.97;80.21
69784;BME280;57054;51.978;4.498;2023-04-05T01:50:45;102482.56;;;3.96;80.26
69784;BME280;57054;51.978;4.498;2023-04-05T01:53:11;102475.59;;;3.92;80.22
69784;BME280;57054;51.978;4.498;2023-04-05T01:55:36;102479.06;;;3.91;80.34
69784;BME280;57054;51.978;4.498;2023-04-05T01:58:02;102476.44;;;3.90;80.49
69784;BME280;57054;51.978;4.498;2023-04-05T02:00:27;102473.84;;;3.88;80.50
69784;BME280;57054;51.978;4.498;2023-04-05T02:02:52;102473.78;;;3.85;80.44
69784;BME280;57054;51.978;4.498;2023-04-05T02:05:18;102466.00;;;3.85;80.59
69784;BME280;57054;51.978;4.498;2023-04-05T02:07:43;102468.59;;;3.85;80.73
69784;BME280;57054;51.978;4.498;2023-04-05T02:10:09;102466.88;;;3.84;80.71
69784;BME280;57054;51.978;4.498;2023-04-05T02:12:35;102461.66;;;3.82;80.81
69784;BME280;57054;51.978;4.498;2023-04-05T02:15:00;102455.59;;;3.82;80.63
69784;BME280;57054;51.978;4.498;2023-04-05T02:17:26;102452.13;;;3.81;80.95
69784;BME280;57054;51.978;4.498;2023-04-05T02:19:58;102446.06;;;3.79;80.90
69784;BME280;57054;51.978;4.498;2023-04-05T02:22:26;102446.03;;;3.78;80.73
69784;BME280;57054;51.978;4.498;2023-04-05T02:24:52;102445.16;;;3.76;80.83
69784;BME280;57054;51.978;4.498;2023-04-05T02:27:17;102436.50;;;3.74;80.82
69784;BME280;57054;51.978;4.498;2023-04-05T02:29:43;102433.88;;;3.72;80.86
69784;BME280;57054;51.978;4.498;2023-04-05T02:32:09;102447.69;;;3.71;80.85
69784;BME280;57054;51.978;4.498;2023-04-05T02:34:34;102445.91;;;3.69;80.83
69784;BME280;57054;51.978;4.498;2023-04-05T02:37:01;102442.44;;;3.67;80.92
69784;BME280;57054;51.978;4.498;2023-04-05T02:39:27;102442.41;;;3.65;80.93
69784;BME280;57054;51.978;4.498;2023-04-05T02:41:53;102443.25;;;3.62;80.89
69784;BME280;57054;51.978;4.498;2023-04-05T02:44:19;102444.09;;;3.61;81.00
69784;BME280;57054;51.978;4.498;2023-04-05T02:46:44;102444.03;;;3.58;81.00
69784;BME280;57054;51.978;4.498;2023-04-05T02:49:09;102439.72;;;3.57;80.96
69784;BME280;57054;51.978;4.498;2023-04-05T02:51:35;102436.22;;;3.54;81.03
69784;BME280;57054;51.978;4.498;2023-04-05T02:54:01;102438.78;;;3.52;81.10
69784;BME280;57054;51.978;4.498;2023-04-05T02:56:27;102434.44;;;3.50;81.14
69784;BME280;57054;51.978;4.498;2023-04-05T02:58:53;102432.69;;;3.49;81.10
69784;BME280;57054;51.978;4.498;2023-04-05T03:01:18;102427.44;;;3.45;81.42
69784;BME280;57054;51.978;4.498;2023-04-05T03:03:44;102423.97;;;3.43;81.13
69784;BME280;57054;51.978;4.498;2023-04-05T03:06:10;102425.69;;;3.43;81.19
69784;BME280;57054;51.978;4.498;2023-04-05T03:08:39;102423.09;;;3.41;81.16
69784;BME280;57054;51.978;4.498;2023-04-05T03:11:09;102428.25;;;3.40;81.33
69784;BME280;57054;51.978;4.498;2023-04-05T03:13:35;102427.38;;;3.39;81.29
69784;BME280;57054;51.978;4.498;2023-04-05T03:16:02;102424.72;;;3.36;81.46
69784;BME280;57054;51.978;4.498;2023-04-05T03:18:27;102420.41;;;3.35;81.45
69784;BME280;57054;51.978;4.498;2023-04-05T03:20:56;102424.72;;;3.33;81.51
69784;BME280;57054;51.978;4.498;2023-04-05T03:23:23;102426.41;;;3.33;81.59
69784;BME280;57054;51.978;4.498;2023-04-05T03:25:59;102429.88;;;3.32;81.79
69784;BME280;57054;51.978;4.498;2023-04-05T03:28:25;102424.66;;;3.30;81.70
69784;BME280;57054;51.978;4.498;2023-04-05T03:30:51;102429.78;;;3.27;81.58
69784;BME280;57054;51.978;4.498;2023-04-05T03:33:17;102427.19;;;3.27;81.72
69784;BME280;57054;51.978;4.498;2023-04-05T03:35:43;102418.53;;;3.25;81.86
69784;BME280;57054;51.978;4.498;2023-04-05T03:38:08;102422.00;;;3.24;81.68
69784;BME280;57054;51.978;4.498;2023-04-05T03:40:34;102418.47;;;3.22;81.70
69784;BME280;57054;51.978;4.498;2023-04-05T03:42:59;102416.72;;;3.19;81.81
69784;BME280;57054;51.978;4.498;2023-04-05T03:45:25;102412.41;;;3.20;81.92
69784;BME280;57054;51.978;4.498;2023-04-05T03:47:51;102416.72;;;3.19;81.98
69784;BME280;57054;51.978;4.498;2023-04-05T03:50:17;102408.97;;;3.19;82.08
69784;BME280;57054;51.978;4.498;2023-04-05T03:52:42;102401.13;;;3.16;82.24
69784;BME280;57054;51.978;4.498;2023-04-05T03:55:08;102399.41;;;3.15;82.09
69784;BME280;57054;51.978;4.498;2023-04-05T03:57:36;102404.56;;;3.14;82.21
69784;BME280;57054;51.978;4.498;2023-04-05T04:00:02;102408.88;;;3.13;82.22
69784;BME280;57054;51.978;4.498;2023-04-05T04:02:39;102407.97;;;3.13;82.24
69784;BME280;57054;51.978;4.498;2023-04-05T04:05:05;102400.22;;;3.11;82.45
69784;BME280;57054;51.978;4.498;2023-04-05T04:07:30;102391.56;;;3.11;82.55
69784;BME280;57054;51.978;4.498;2023-04-05T04:09:56;102397.59;;;3.10;82.62
69784;BME280;57054;51.978;4.498;2023-04-05T04:12:21;102399.31;;;3.09;82.68
69784;BME280;57054;51.978;4.498;2023-04-05T04:14:46;102401.03;;;3.08;82.77
69784;BME280;57054;51.978;4.498;2023-04-05T04:17:27;102397.56;;;3.08;82.78
69784;BME280;57054;51.978;4.498;2023-04-05T04:19:53;102401.88;;;3.07;82.88
69784;BME280;57054;51.978;4.498;2023-04-05T04:22:19;102394.97;;;3.06;83.01
69784;BME280;57054;51.978;4.498;2023-04-05T04:24:45;102402.69;;;3.05;83.00
69784;BME280;57054;51.978;4.498;2023-04-05T04:27:14;102398.38;;;3.04;83.10
69784;BME280;57054;51.978;4.498;2023-04-05T04:29:41;102396.63;;;3.03;83.26
69784;BME280;57054;51.978;4.498;2023-04-05T04:32:11;102396.59;;;3.01;83.17
69784;BME280;57054;51.978;4.498;2023-04-05T04:34:36;102393.16;;;3.01;83.22
69784;BME280;57054;51.978;4.498;2023-04-05T04:37:02;102397.47;;;3.00;83.45
69784;BME280;57054;51.978;4.498;2023-04-05T04:39:28;102393.94;;;2.98;83.49
69784;BME280;57054;51.978;4.498;2023-04-05T04:41:56;102393.94;;;2.98;83.48
69784;BME280;57054;51.978;4.498;2023-04-05T04:44:21;102388.78;;;2.97;83.55
69784;BME280;57054;51.978;4.498;2023-04-05T04:46:52;102387.88;;;2.96;83.71
69784;BME280;57054;51.978;4.498;2023-04-05T04:49:19;102392.19;;;2.96;83.63
69784;BME280;57054;51.978;4.498;2023-04-05T04:51:45;102391.31;;;2.94;83.87
69784;BME280;57054;51.978;4.498;2023-04-05T04:54:11;102400.78;;;2.93;83.93
69784;BME280;57054;51.978;4.498;2023-04-05T04:56:37;102389.56;;;2.93;84.02
69784;BME280;57054;51.978;4.498;2023-04-05T04:59:02;102396.44;;;2.91;83.95
69784;BME280;57054;51.978;4.498;2023-04-05T05:01:28;102392.97;;;2.90;84.02
69784;BME280;57054;51.978;4.498;2023-04-05T05:03:53;102391.22;;;2.89;84.29
69784;BME280;57054;51.978;4.498;2023-04-05T05:06:19;102385.19;;;2.88;84.15
69784;BME280;57054;51.978;4.498;2023-04-05T05:08:46;102386.03;;;2.87;84.35
69784;BME280;57054;51.978;4.498;2023-04-05T05:11:12;102384.28;;;2.86;84.27
69784;BME280;57054;51.978;4.498;2023-04-05T05:13:38;102387.75;;;2.87;84.57
69784;BME280;57054;51.978;4.498;2023-04-05T05:16:03;102386.03;;;2.86;84.43
69784;BME280;57054;51.978;4.498;2023-04-05T05:18:29;102388.59;;;2.86;84.56
69784;BME280;57054;51.978;4.498;2023-04-05T05:20:55;102393.75;;;2.84;84.58
69784;BME280;57054;51.978;4.498;2023-04-05T05:23:20;102398.97;;;2.86;84.63
69784;BME280;57054;51.978;4.498;2023-04-05T05:25:46;102410.16;;;2.86;84.74
69784;BME280;57054;51.978;4.498;2023-04-05T05:28:11;102400.66;;;2.84;85.09
69784;BME280;57054;51.978;4.498;2023-04-05T05:30:37;102404.97;;;2.85;85.32
69784;BME280;57054;51.978;4.498;2023-04-05T05:33:03;102409.28;;;2.84;85.07
69784;BME280;57054;51.978;4.498;2023-04-05T05:35:28;102403.25;;;2.84;85.25
69784;BME280;57054;51.978;4.498;2023-04-05T05:37:54;102406.69;;;2.84;85.40
69784;BME280;57054;51.978;4.498;2023-04-05T05:40:19;102398.91;;;2.83;85.39
69784;BME280;57054;51.978;4.498;2023-04-05T05:42:45;102415.34;;;2.86;85.34
69784;BME280;57054;51.978;4.498;2023-04-05T05:45:10;102412.72;;;2.85;85.48
69784;BME280;57054;51.978;4.498;2023-04-05T05:47:36;102419.66;;;2.86;85.49
69784;BME280;57054;51.978;4.498;2023-04-05T05:50:02;102415.31;;;2.85;85.62
69784;BME280;57054;51.978;4.498;2023-04-05T05:52:27;102409.28;;;2.84;85.93
69784;BME280;57054;51.978;4.498;2023-04-05T05:54:53;102409.28;;;2.84;85.69
69784;BME280;57054;51.978;4.498;2023-04-05T05:57:19;102412.72;;;2.85;85.86
69784;BME280;57054;51.978;4.498;2023-04-05T05:59:44;102409.31;;;2.86;85.84
69784;BME280;57054;51.978;4.498;2023-04-05T06:02:09;102407.59;;;2.86;85.99
69784;BME280;57054;51.978;4.498;2023-04-05T06:04:35;102408.47;;;2.88;85.89
69784;BME280;57054;51.978;4.498;2023-04-05T06:07:02;102405.88;;;2.88;86.04
69784;BME280;57054;51.978;4.498;2023-04-05T06:09:28;102411.97;;;2.92;86.33
69784;BME280;57054;51.978;4.498;2023-04-05T06:11:54;102404.22;;;2.92;86.49
69784;BME280;57054;51.978;4.498;2023-04-05T06:14:20;102402.53;;;2.94;86.42
69784;BME280;57054;51.978;4.498;2023-04-05T06:16:48;102408.63;;;2.98;86.57
69784;BME280;57054;51.978;4.498;2023-04-05T06:19:14;102404.34;;;3.00;86.67
69784;BME280;57054;51.978;4.498;2023-04-05T06:21:39;102410.41;;;3.02;86.88
69784;BME280;57054;51.978;4.498;2023-04-05T06:24:05;102405.22;;;3.02;87.04
69784;BME280;57054;51.978;4.498;2023-04-05T06:26:30;102415.63;;;3.05;87.29
69784;BME280;57054;51.978;4.498;2023-04-05T06:28:56;102407.88;;;3.05;87.41
69784;BME280;57054;51.978;4.498;2023-04-05T06:31:26;102407.94;;;3.08;87.46
69784;BME280;57054;51.978;4.498;2023-04-05T06:33:55;102405.38;;;3.10;87.51
69784;BME280;57054;51.978;4.498;2023-04-05T06:36:20;102401.91;;;3.11;87.84
69784;BME280;57054;51.978;4.498;2023-04-05T06:38:46;102401.09;;;3.13;88.12
69784;BME280;57054;51.978;4.498;2023-04-05T06:41:20;102408.06;;;3.17;88.31
69784;BME280;57054;51.978;4.498;2023-04-05T06:43:46;102406.38;;;3.19;88.46
69784;BME280;57054;51.978;4.498;2023-04-05T06:46:11;102408.13;;;3.22;88.72
69784;BME280;57054;51.978;4.498;2023-04-05T06:48:37;102403.88;;;3.24;89.03
69784;BME280;57054;51.978;4.498;2023-04-05T06:51:04;102408.16;;;3.25;89.36
69784;BME280;57054;51.978;4.498;2023-04-05T06:53:30;102405.66;;;3.30;89.26
69784;BME280;57054;51.978;4.498;2023-04-05T06:55:57;102403.97;;;3.32;89.55
69784;BME280;57054;51.978;4.498;2023-04-05T06:58:23;102404.84;;;3.34;89.78
69784;BME280;57054;51.978;4.498;2023-04-05T07:00:49;102403.16;;;3.36;90.04
69784;BME280;57054;51.978;4.498;2023-04-05T07:03:15;102395.41;;;3.37;90.29
69784;BME280;57054;51.978;4.498;2023-04-05T07:05:49;102405.81;;;3.42;90.25
69784;BME280;57054;51.978;4.498;2023-04-05T07:08:15;102396.38;;;3.44;90.75
69784;BME280;57054;51.978;4.498;2023-04-05T07:10:40;102398.13;;;3.46;90.87
69784;BME280;57054;51.978;4.498;2023-04-05T07:13:06;102396.44;;;3.49;91.16
69784;BME280;57054;51.978;4.498;2023-04-05T07:15:31;102385.25;;;3.51;91.19
69784;BME280;57054;51.978;4.498;2023-04-05T07:17:57;102385.28;;;3.54;91.38
69784;BME280;57054;51.978;4.498;2023-04-05T07:20:22;102395.72;;;3.59;91.46
69784;BME280;57054;51.978;4.498;2023-04-05T07:22:48;102390.56;;;3.60;91.52
69784;BME280;57054;51.978;4.498;2023-04-05T07:25:13;102390.56;;;3.63;91.78
69784;BME280;57054;51.978;4.498;2023-04-05T07:27:39;102399.22;;;3.65;91.87
69784;BME280;57054;51.978;4.498;2023-04-05T07:30:05;102388.06;;;3.70;92.06
69784;BME280;57054;51.978;4.498;2023-04-05T07:32:31;102389.78;;;3.71;92.19
69784;BME280;57054;51.978;4.498;2023-04-05T07:34:58;102390.72;;;3.74;92.42
69784;BME280;57054;51.978;4.498;2023-04-05T07:37:23;102385.56;;;3.77;92.51
69784;BME280;57054;51.978;4.498;2023-04-05T07:39:49;102383.88;;;3.79;92.75
69784;BME280;57054;51.978;4.498;2023-04-05T07:42:14;102375.25;;;3.82;92.82
69784;BME280;57054;51.978;4.498;2023-04-05T07:44:41;102374.44;;;3.84;92.95
69784;BME280;57054;51.978;4.498;2023-04-05T07:47:07;102372.78;;;3.90;92.97
69784;BME280;57054;51.978;4.498;2023-04-05T07:49:32;102369.31;;;3.91;93.33
69784;BME280;57054;51.978;4.498;2023-04-05T07:51:59;102373.69;;;3.95;93.48
69784;BME280;57054;51.978;4.498;2023-04-05T07:54:27;102374.56;;;3.97;93.66
69784;BME280;57054;51.978;4.498;2023-04-05T07:56:52;102371.13;;;3.99;93.54
69784;BME280;57054;51.978;4.498;2023-04-05T07:59:19;102370.28;;;4.02;93.56
69784;BME280;57054;51.978;4.498;2023-04-05T08:01:45;102366.88;;;4.04;93.45
69784;BME280;57054;51.978;4.498;2023-04-05T08:04:17;102365.16;;;4.05;93.02
69784;BME280;57054;51.978;4.498;2023-04-05T08:06:46;102361.75;;;4.08;93.21
69784;BME280;57054;51.978;4.498;2023-04-05T08:09:15;102360.94;;;4.13;93.21
69784;BME280;57054;51.978;4.498;2023-04-05T08:11:46;102361.81;;;4.15;92.85
69784;BME280;57054;51.978;4.498;2023-04-05T08:14:12;102363.56;;;4.18;92.49
69784;BME280;57054;51.978;4.498;2023-04-05T08:16:37;102361.84;;;4.18;92.32
69784;BME280;57054;51.978;4.498;2023-04-05T08:19:02;102368.78;;;4.21;91.60
69784;BME280;57054;51.978;4.498;2023-04-05T08:21:28;102360.16;;;4.25;91.40
69784;BME280;57054;51.978;4.498;2023-04-05T08:23:53;102368.00;;;4.28;90.72
69784;BME280;57054;51.978;4.498;2023-04-05T08:26:19;102359.34;;;4.28;88.28
69784;BME280;57054;51.978;4.498;2023-04-05T08:28:44;102361.94;;;4.31;86.73
69784;BME280;57054;51.978;4.498;2023-04-05T08:31:10;102360.28;;;4.36;86.47
69784;BME280;57054;51.978;4.498;2023-04-05T08:33:36;102354.25;;;4.38;86.54
69784;BME280;57054;51.978;4.498;2023-04-05T08:36:06;102361.19;;;4.41;83.97
69784;BME280;57054;51.978;4.498;2023-04-05T08:38:31;102352.56;;;4.43;83.76
69784;BME280;57054;51.978;4.498;2023-04-05T08:41:06;102356.94;;;4.48;81.64
69784;BME280;57054;51.978;4.498;2023-04-05T08:46:16;102358.72;;;4.55;76.56
69784;BME280;57054;51.978;4.498;2023-04-05T08:48:43;102357.03;;;4.60;76.07
69784;BME280;57054;51.978;4.498;2023-04-05T08:51:09;102357.91;;;4.64;72.43
69784;BME280;57054;51.978;4.498;2023-04-05T08:53:34;102357.09;;;4.69;71.62
69784;BME280;57054;51.978;4.498;2023-04-05T08:56:01;102358.00;;;4.74;73.27
69784;BME280;57054;51.978;4.498;2023-04-05T08:58:27;102356.31;;;4.78;72.90
69784;BME280;57054;51.978;4.498;2023-04-05T09:00:54;102354.63;;;4.83;70.03
69784;BME280;57054;51.978;4.498;2023-04-05T09:03:22;102362.44;;;4.89;71.22
69784;BME280;57054;51.978;4.498;2023-04-05T09:05:49;102355.56;;;4.94;71.78
69784;BME280;57054;51.978;4.498;2023-04-05T09:08:16;102349.56;;;4.98;72.35
69784;BME280;57054;51.978;4.498;2023-04-05T09:10:42;102354.75;;;4.98;71.50
69784;BME280;57054;51.978;4.498;2023-04-05T09:13:08;102360.81;;;5.02;71.00
69784;BME280;57054;51.978;4.498;2023-04-05T09:15:37;102346.97;;;5.05;70.84
69784;BME280;57054;51.978;4.498;2023-04-05T09:18:03;102357.41;;;5.12;70.65
69784;BME280;57054;51.978;4.498;2023-04-05T09:20:29;102350.50;;;5.16;69.98
69784;BME280;57054;51.978;4.498;2023-04-05T09:22:57;102354.00;;;5.21;69.42
69784;BME280;57054;51.978;4.498;2023-04-05T09:25:37;102343.66;;;5.24;68.68
69784;BME280;57054;51.978;4.498;2023-04-05T09:28:04;102348.84;;;5.30;69.30
69784;BME280;57054;51.978;4.498;2023-04-05T09:30:31;102345.41;;;5.36;69.77
69784;BME280;57054;51.978;4.498;2023-04-05T09:32:57;102345.44;;;5.39;70.11
69784;BME280;57054;51.978;4.498;2023-04-05T09:35:24;102342.88;;;5.42;70.49
69784;BME280;57054;51.978;4.498;2023-04-05T09:37:52;102345.47;;;5.47;70.56
69784;BME280;57054;51.978;4.498;2023-04-05T09:40:19;102335.09;;;5.50;70.95
69784;BME280;57054;51.978;4.498;2023-04-05T09:42:45;102340.28;;;5.53;66.14
69784;BME280;57054;51.978;4.498;2023-04-05T09:45:11;102338.63;;;5.61;65.10
69784;BME280;57054;51.978;4.498;2023-04-05T09:47:37;102341.22;;;5.69;64.90
69784;BME280;57054;51.978;4.498;2023-04-05T09:50:17;102337.78;;;5.74;66.45
69784;BME280;57054;51.978;4.498;2023-04-05T09:52:43;102331.72;;;5.80;67.97
69784;BME280;57054;51.978;4.498;2023-04-05T09:55:09;102339.53;;;5.82;63.69
69784;BME280;57054;51.978;4.498;2023-04-05T09:57:37;102335.22;;;5.85;65.46
69784;BME280;57054;51.978;4.498;2023-04-05T10:00:05;102332.63;;;5.93;63.87
69784;BME280;57054;51.978;4.498;2023-04-05T10:02:38;102325.75;;;5.98;62.89
69784;BME280;57054;51.978;4.498;2023-04-05T10:05:09;102321.44;;;6.06;63.76
69784;BME280;57054;51.978;4.498;2023-04-05T10:07:38;102321.44;;;6.12;63.79
69784;BME280;57054;51.978;4.498;2023-04-05T10:10:04;102316.28;;;6.19;64.36
69784;BME280;57054;51.978;4.498;2023-04-05T10:12:31;102316.28;;;6.28;65.96
69784;BME280;57054;51.978;4.498;2023-04-05T10:14:57;102318.88;;;6.37;67.57
69784;BME280;57054;51.978;4.498;2023-04-05T10:17:27;102316.28;;;6.45;67.55
69784;BME280;57054;51.978;4.498;2023-04-05T10:20:18;102313.69;;;6.48;65.48
69784;BME280;57054;51.978;4.498;2023-04-05T10:28:10;102312.78;;;6.58;64.55
69784;BME280;57054;51.978;4.498;2023-04-05T10:30:45;102309.34;;;6.62;66.13
69784;BME280;57054;51.978;4.498;2023-04-05T10:33:29;102305.84;;;6.65;66.45
69784;BME280;57054;51.978;4.498;2023-04-05T10:36:23;102306.72;;;6.70;64.24
69784;BME280;57054;51.978;4.498;2023-04-05T10:39:21;102314.50;;;6.75;61.05
69784;BME280;57054;51.978;4.498;2023-04-05T10:41:50;102304.97;;;6.81;63.00
69784;BME280;57054;51.978;4.498;2023-04-05T10:44:17;102309.28;;;6.87;61.88
69784;BME280;57054;51.978;4.498;2023-04-05T10:46:44;102298.88;;;6.90;62.23
69784;BME280;57054;51.978;4.498;2023-04-05T10:52:27;102297.13;;;7.04;62.25
69784;BME280;57054;51.978;4.498;2023-04-05T10:54:53;102295.38;;;7.08;64.18
69784;BME280;57054;51.978;4.498;2023-04-05T10:57:21;102295.34;;;7.13;64.89
69784;BME280;57054;51.978;4.498;2023-04-05T10:59:48;102295.34;;;7.14;64.58
69784;BME280;57054;51.978;4.498;2023-04-05T11:02:15;102298.81;;;7.18;66.17
69784;BME280;57054;51.978;4.498;2023-04-05T11:04:41;102289.22;;;7.17;62.26
69784;BME280;57054;51.978;4.498;2023-04-05T11:07:17;102280.56;;;7.21;59.53
69784;BME280;57054;51.978;4.498;2023-04-05T11:09:59;102280.53;;;7.27;59.03
69784;BME280;57054;51.978;4.498;2023-04-05T11:15:36;102282.22;;;7.37;60.03
69784;BME280;57054;51.978;4.498;2023-04-05T11:18:07;102276.97;;;7.40;61.49
69784;BME280;57054;51.978;4.498;2023-04-05T11:23:05;102271.75;;;7.46;56.11
69784;BME280;57054;51.978;4.498;2023-04-05T11:25:36;102268.25;;;7.49;59.59
69784;BME280;57054;51.978;4.498;2023-04-05T11:28:03;102278.69;;;7.57;60.47
69784;BME280;57054;51.978;4.498;2023-04-05T11:30:49;102274.28;;;7.62;57.68
69784;BME280;57054;51.978;4.498;2023-04-05T11:33:38;102270.81;;;7.66;56.54
69784;BME280;57054;51.978;4.498;2023-04-05T11:36:04;102259.47;;;7.65;54.36
69784;BME280;57054;51.978;4.498;2023-04-05T11:38:30;102260.31;;;7.72;59.65
69784;BME280;57054;51.978;4.498;2023-04-05T11:41:11;102263.78;;;7.79;59.30
69784;BME280;57054;51.978;4.498;2023-04-05T11:43:37;102268.94;;;7.83;61.83
69784;BME280;57054;51.978;4.498;2023-04-05T11:46:03;102262.81;;;7.87;58.23
69784;BME280;57054;51.978;4.498;2023-04-05T11:48:31;102259.28;;;7.95;58.70
69784;BME280;57054;51.978;4.498;2023-04-05T11:50:56;102256.69;;;7.95;55.98
69784;BME280;57054;51.978;4.498;2023-04-05T11:53:22;102252.34;;;7.95;53.27
69784;BME280;57054;51.978;4.498;2023-04-05T11:55:49;102241.94;;;7.94;53.00
69784;BME280;57054;51.978;4.498;2023-04-05T11:58:19;102241.91;;;7.97;53.79
69784;BME280;57054;51.978;4.498;2023-04-05T12:01:07;102233.19;;;8.02;56.94
69784;BME280;57054;51.978;4.498;2023-04-05T12:03:35;102236.56;;;8.11;58.73
69784;BME280;57054;51.978;4.498;2023-04-05T12:06:02;102233.94;;;8.15;58.68
69784;BME280;57054;51.978;4.498;2023-04-05T12:08:41;102240.84;;;8.21;60.01
69784;BME280;57054;51.978;4.498;2023-04-05T12:11:08;102234.72;;;8.23;57.02
69784;BME280;57054;51.978;4.498;2023-04-05T12:13:34;102227.75;;;8.24;56.06
69784;BME280;57054;51.978;4.498;2023-04-05T12:16:01;102223.38;;;8.27;55.12
69784;BME280;57054;51.978;4.498;2023-04-05T12:18:31;102228.56;;;8.34;58.50
69784;BME280;57054;51.978;4.498;2023-04-05T12:20:57;102232.00;;;8.36;56.61
69784;BME280;57054;51.978;4.498;2023-04-05T12:23:23;102227.66;;;8.36;54.01
69784;BME280;57054;51.978;4.498;2023-04-05T12:25:50;102225.94;;;8.34;54.21
69784;BME280;57054;51.978;4.498;2023-04-05T12:28:16;102223.34;;;8.34;55.85
69784;BME280;57054;51.978;4.498;2023-04-05T12:33:14;102214.56;;;8.41;58.83
69784;BME280;57054;51.978;4.498;2023-04-05T12:35:40;102215.38;;;8.48;60.38
69784;BME280;57054;51.978;4.498;2023-04-05T12:38:06;102214.47;;;8.53;61.21
69784;BME280;57054;51.978;4.498;2023-04-05T12:40:34;102212.72;;;8.55;61.88
69784;BME280;57054;51.978;4.498;2023-04-05T12:43:01;102204.81;;;8.58;59.98
69784;BME280;57054;51.978;4.498;2023-04-05T12:45:27;102205.66;;;8.62;59.69
69784;BME280;57054;51.978;4.498;2023-04-05T12:47:57;102210.00;;;8.64;60.49
69784;BME280;57054;51.978;4.498;2023-04-05T12:50:28;102205.63;;;8.65;57.25
69784;BME280;57054;51.978;4.498;2023-04-05T12:52:55;102196.00;;;8.70;58.07
69784;BME280;57054;51.978;4.498;2023-04-05T12:55:21;102193.38;;;8.73;56.74
69784;BME280;57054;51.978;4.498;2023-04-05T12:57:55;102184.59;;;8.79;57.06
69784;BME280;57054;51.978;4.498;2023-04-05T13:00:21;102191.47;;;8.86;57.33
69784;BME280;57054;51.978;4.498;2023-04-05T13:02:55;102182.69;;;8.93;57.93
69784;BME280;57054;51.978;4.498;2023-04-05T13:05:30;102185.19;;;9.02;57.83
69784;BME280;57054;51.978;4.498;2023-04-05T13:07:56;102180.72;;;9.11;58.57
69784;BME280;57054;51.978;4.498;2023-04-05T13:10:23;102178.91;;;9.16;55.26
69784;BME280;57054;51.978;4.498;2023-04-05T13:12:49;102177.09;;;9.21;56.55
69784;BME280;57054;51.978;4.498;2023-04-05T13:15:15;102173.56;;;9.23;55.65
69784;BME280;57054;51.978;4.498;2023-04-05T13:17:42;102164.88;;;9.23;56.83
69784;BME280;57054;51.978;4.498;2023-04-05T13:20:10;102167.47;;;9.25;55.26
69784;BME280;57054;51.978;4.498;2023-04-05T13:22:36;102161.38;;;9.24;55.40
69784;BME280;57054;51.978;4.498;2023-04-05T13:25:01;102162.25;;;9.23;55.69
69784;BME280;57054;51.978;4.498;2023-04-05T13:27:27;102161.41;;;9.21;51.53